Česky Dansk Deutsch English Español Suomi Français Magyar Italiano Nederlands norsk Polski Português svenska Türkçe

 

Het Weer

Neuburg / Donau (Duitsland)

08:20, 15 augustus 2016 (GMT)

NWNNE
WE
SWSSE
Home            
Neuburg / Donau Ingolstadt Augsburg Roth Fuerstenfeldbruck Munchen Lechfeld Erding Oberpfaffenhofen Hohenfels Landsberg Ansbach / Katterbach Nuernberg Kuemmersruck Altenstadt Illesheim Memmingen Laupheim Niederstetten Grafenwoehr Kitzingen Usa \ Af Giebelstadt Bayreuth

Om een weerknop op uw website of weblog te plaatsen, copieer onderstaande code en plak die in uw pagina. In het eerste vakje staat HTML-code, in het tweede vakje UBB-code.


Add to Google

Details

Wind speed:1 bf, 3 kn, 1.5 m/s, 3.5 miles/h, 5.6 km/h
Wind direction:Variable
Visibility:Greater than 10000 m, 10 km, 32800 ft, 6.2 miles
Clouds:Ein wenig bewölkt at 6000 ft, 1829 m
Temperature:21°C, 70°F
Dew-point:14°C, 57°F
Atmospheric pressure:1022 hPa, 766.6 mmHg, 30.18 inHg, 1.009 atm
Relative humidity:64.3 %
METAR:ETSN 150820Z VRB03KT 9999 FEW060 21/14 Q1022 BLU+

Snelkoppelingen

Actuele weersinformatie van de hele wereld. Voeg locaties toe met het plus (+) symbool. Deze snelkoppelingen kunnen worden toegevoegd aan Google.

Lid van de Technetium groep

website free tracking
StatCounter NetStat W3C Validator

19-01-2021 05:56:35
astro.technetium.be money.technetium.be phote.technetium.be tafeltennistafel.technetium.be www.ligfiets.net